createdAt,value
2022-12-05T00:02:22.055Z,35.90
2022-12-05T00:04:50.385Z,30.85
2022-12-05T00:07:18.234Z,31.55
2022-12-05T00:09:46.607Z,37.58
2022-12-05T00:12:14.755Z,35.10
2022-12-05T00:14:44.035Z,32.55
2022-12-05T00:17:12.311Z,30.80
2022-12-05T00:19:40.649Z,37.10
2022-12-05T00:22:08.475Z,31.70
2022-12-05T00:24:37.122Z,34.90
2022-12-05T00:27:05.109Z,33.67
2022-12-05T00:29:33.494Z,34.15
2022-12-05T00:32:01.694Z,31.92
2022-12-05T00:34:30.339Z,31.88
2022-12-05T00:36:59.338Z,32.40
2022-12-05T00:39:28.198Z,37.30
2022-12-05T00:41:56.316Z,38.15
2022-12-05T00:44:24.426Z,36.05
2022-12-05T00:46:52.663Z,35.78
2022-12-05T00:49:20.785Z,33.08
2022-12-05T00:51:48.792Z,35.53
2022-12-05T00:54:17.702Z,36.65
2022-12-05T00:56:46.559Z,38.88
2022-12-05T00:59:20.869Z,36.80
2022-12-05T01:01:50.668Z,36.17
2022-12-05T01:04:23.174Z,32.97
2022-12-05T01:06:55.950Z,34.38
2022-12-05T01:09:25.598Z,35.45
2022-12-05T01:11:53.788Z,34.88
2022-12-05T01:14:25.126Z,37.83
2022-12-05T01:16:55.796Z,35.97
2022-12-05T01:19:31.456Z,32.93
2022-12-05T01:22:02.604Z,33.83
2022-12-05T01:24:31.442Z,38.75
2022-12-05T01:26:59.598Z,35.58
2022-12-05T01:29:28.042Z,36.92
2022-12-05T01:31:56.818Z,40.67
2022-12-05T01:34:25.694Z,41.42
2022-12-05T01:36:54.434Z,40.47
2022-12-05T01:39:22.997Z,45.72
2022-12-05T01:41:51.520Z,46.53
2022-12-05T01:44:19.418Z,42.13
2022-12-05T01:46:52.878Z,42.97
2022-12-05T01:49:37.520Z,43.83
2022-12-05T01:52:20.533Z,42.42
2022-12-05T01:54:54.688Z,47.70
2022-12-05T01:57:23.874Z,40.17
2022-12-05T01:59:58.893Z,46.63
2022-12-05T02:02:32.486Z,40.30
2022-12-05T02:05:10.615Z,41.47
2022-12-05T02:07:41.369Z,42.88
2022-12-05T02:10:10.845Z,43.05
2022-12-05T02:12:39.445Z,43.67
2022-12-05T02:15:56.942Z,43.20
2022-12-05T02:18:57.842Z,44.28
2022-12-05T02:22:05.057Z,38.17
2022-12-05T02:24:43.117Z,37.22
2022-12-05T02:27:38.684Z,40.10
2022-12-05T02:30:14.324Z,35.33
2022-12-05T02:33:23.847Z,33.55
2022-12-05T02:36:04.271Z,37.75
2022-12-05T02:38:56.025Z,34.15
2022-12-05T02:41:31.034Z,34.85
2022-12-05T02:44:11.277Z,32.95
2022-12-05T02:46:42.052Z,33.88
2022-12-05T02:49:17.565Z,25.33
2022-12-05T02:51:52.502Z,33.47
2022-12-05T02:54:26.552Z,34.45
2022-12-05T02:56:57.505Z,34.88
2022-12-05T02:59:25.706Z,34.30
2022-12-05T03:01:55.314Z,32.60
2022-12-05T03:04:26.802Z,31.77
2022-12-05T03:07:09.904Z,35.65
2022-12-05T03:09:48.044Z,31.20
2022-12-05T03:12:30.555Z,28.83
2022-12-05T03:15:08.431Z,29.65
2022-12-05T03:17:53.644Z,26.40
2022-12-05T03:20:33.340Z,28.15
2022-12-05T03:23:38.167Z,30.08
2022-12-05T03:26:45.118Z,32.17
2022-12-05T03:29:24.161Z,26.05
2022-12-05T03:32:28.860Z,28.45
2022-12-05T03:35:22.791Z,27.25
2022-12-05T03:38:04.252Z,25.60
2022-12-05T03:40:42.829Z,26.27
2022-12-05T03:43:29.313Z,26.67
2022-12-05T03:46:11.501Z,27.10
2022-12-05T03:48:42.626Z,29.02
2022-12-05T03:51:14.862Z,28.67
2022-12-05T03:53:59.630Z,29.92
2022-12-05T03:56:49.388Z,27.90
2022-12-05T03:59:35.843Z,26.15
2022-12-05T04:02:32.796Z,24.45
2022-12-05T04:05:29.240Z,27.83
2022-12-05T04:08:12.150Z,29.13
2022-12-05T04:10:50.530Z,28.23
2022-12-05T04:13:33.186Z,27.30
2022-12-05T04:17:03.623Z,26.45
2022-12-05T04:20:15.048Z,27.35
2022-12-05T04:22:44.627Z,25.95
2022-12-05T04:25:35.169Z,20.77
2022-12-05T04:29:07.641Z,24.63
2022-12-05T04:34:15.945Z,23.80
2022-12-05T04:37:14.673Z,28.38
2022-12-05T04:40:14.637Z,25.60
2022-12-05T04:42:44.942Z,27.60
2022-12-05T04:45:16.156Z,30.90
2022-12-05T04:47:54.836Z,28.02
2022-12-05T04:50:24.609Z,27.50
2022-12-05T04:52:56.986Z,30.58
2022-12-05T04:55:28.110Z,29.27
2022-12-05T04:58:08.005Z,26.88
2022-12-05T05:00:51.437Z,25.60
2022-12-05T05:03:59.244Z,26.55
2022-12-05T05:06:27.643Z,23.95
2022-12-05T05:08:58.677Z,26.83
2022-12-05T05:11:29.834Z,25.85
2022-12-05T05:13:57.901Z,25.23
2022-12-05T05:16:33.394Z,23.77
2022-12-05T05:19:01.717Z,25.27
2022-12-05T05:21:39.667Z,28.30
2022-12-05T05:24:11.835Z,22.40
2022-12-05T05:26:43.003Z,23.80
2022-12-05T05:29:13.525Z,24.15
2022-12-05T05:31:42.347Z,23.45
2022-12-05T05:34:12.128Z,25.42
2022-12-05T05:36:40.347Z,27.10
2022-12-05T05:39:14.238Z,24.15
2022-12-05T05:41:42.858Z,22.05
2022-12-05T05:44:11.847Z,20.92
2022-12-05T05:46:40.235Z,22.42
2022-12-05T05:49:08.500Z,18.52
2022-12-05T05:51:39.231Z,19.23
2022-12-05T05:54:07.202Z,19.75
2022-12-05T05:56:36.624Z,18.33
2022-12-05T05:59:06.886Z,18.38
2022-12-05T06:01:35.542Z,18.52
2022-12-05T06:04:03.951Z,17.65
2022-12-05T06:06:32.313Z,17.92
2022-12-05T06:09:00.386Z,18.48
2022-12-05T06:11:28.749Z,18.63
2022-12-05T06:14:01.390Z,18.48
2022-12-05T06:16:32.309Z,19.83
2022-12-05T06:21:30.116Z,16.85
2022-12-05T06:23:58.730Z,18.30
2022-12-05T06:26:29.027Z,17.60
2022-12-05T06:28:57.149Z,22.85
2022-12-05T06:31:32.074Z,18.90
2022-12-05T06:34:05.221Z,17.80
2022-12-05T06:36:33.680Z,16.33
2022-12-05T06:39:03.057Z,15.88
2022-12-05T06:41:32.073Z,18.42
2022-12-05T06:44:02.491Z,17.05
2022-12-05T06:46:31.214Z,18.20
2022-12-05T06:49:00.248Z,18.77
2022-12-05T06:51:28.984Z,18.17
2022-12-05T06:53:58.379Z,16.20
2022-12-05T06:56:29.537Z,20.75
2022-12-05T06:58:58.363Z,17.63
2022-12-05T07:01:42.853Z,16.63
2022-12-05T07:04:15.884Z,16.50
2022-12-05T07:06:50.126Z,15.40
2022-12-05T07:09:46.250Z,20.15
2022-12-05T07:12:17.705Z,18.10
2022-12-05T07:14:50.680Z,39.83
2022-12-05T07:17:20.471Z,38.88
2022-12-05T07:19:49.793Z,26.15
2022-12-05T07:22:21.167Z,26.25
2022-12-05T07:24:53.581Z,21.50
2022-12-05T07:27:27.522Z,19.63
2022-12-05T07:29:56.779Z,18.90
2022-12-05T07:32:25.183Z,15.85
2022-12-05T07:34:55.529Z,16.98
2022-12-05T07:37:24.921Z,14.20
2022-12-05T07:39:53.739Z,16.00
2022-12-05T07:42:21.918Z,14.02
2022-12-05T07:44:50.386Z,13.80
2022-12-05T07:47:18.515Z,12.75
2022-12-05T07:49:46.768Z,16.20
2022-12-05T07:52:14.634Z,14.85
2022-12-05T07:54:42.699Z,16.10
2022-12-05T07:57:11.683Z,15.32
2022-12-05T07:59:40.688Z,14.63
2022-12-05T08:02:10.672Z,16.05
2022-12-05T08:04:39.626Z,18.38
2022-12-05T08:07:12.645Z,17.02
2022-12-05T08:09:41.994Z,16.27
2022-12-05T08:12:10.205Z,23.80
2022-12-05T08:14:38.746Z,29.60
2022-12-05T08:17:08.196Z,28.33
2022-12-05T08:19:37.094Z,23.02
2022-12-05T08:22:05.794Z,22.48
2022-12-05T08:24:36.488Z,19.73
2022-12-05T08:27:06.338Z,15.50
2022-12-05T08:29:34.485Z,20.00
2022-12-05T08:32:02.456Z,19.35
2022-12-05T08:34:30.858Z,17.38
2022-12-05T08:36:58.683Z,18.08
2022-12-05T08:39:27.357Z,15.85
2022-12-05T08:41:55.908Z,15.35
2022-12-05T08:44:24.159Z,15.80
2022-12-05T08:46:52.578Z,14.02
2022-12-05T08:49:21.144Z,16.13
2022-12-05T08:51:49.371Z,15.13
2022-12-05T08:54:17.925Z,16.23
2022-12-05T08:56:46.254Z,15.40
2022-12-05T08:59:14.787Z,14.13
2022-12-05T09:01:43.518Z,15.60
2022-12-05T09:04:12.744Z,15.02
2022-12-05T09:06:44.597Z,16.58
2022-12-05T09:09:13.138Z,17.30
2022-12-05T09:11:49.394Z,15.68
2022-12-05T09:14:18.914Z,15.73
2022-12-05T09:16:48.356Z,18.85
2022-12-05T09:19:21.527Z,17.55
2022-12-05T09:21:49.800Z,20.42
2022-12-05T09:24:18.165Z,17.20
2022-12-05T09:26:47.386Z,16.88
2022-12-05T09:29:17.707Z,16.38
2022-12-05T09:31:48.969Z,17.73
2022-12-05T09:34:18.645Z,16.23
2022-12-05T09:36:55.783Z,15.68
2022-12-05T09:39:29.543Z,16.15
2022-12-05T09:42:18.741Z,17.15
2022-12-05T09:45:26.046Z,18.60
2022-12-05T09:47:55.725Z,19.90
2022-12-05T09:50:35.283Z,18.67
2022-12-05T09:53:21.048Z,20.08
2022-12-05T09:55:53.633Z,19.73
2022-12-05T09:58:42.643Z,18.98
2022-12-05T10:01:33.154Z,18.85
2022-12-05T10:04:29.244Z,15.65
2022-12-05T10:07:25.500Z,17.08
2022-12-05T10:10:21.340Z,17.50
2022-12-05T10:13:36.970Z,19.23
2022-12-05T10:16:14.653Z,19.50
2022-12-05T10:19:12.443Z,17.52
2022-12-05T10:21:50.158Z,18.85
2022-12-05T10:24:32.078Z,16.83
2022-12-05T10:27:07.392Z,16.23
2022-12-05T10:29:57.916Z,23.88
2022-12-05T10:32:46.917Z,19.52
2022-12-05T10:35:41.562Z,19.52
2022-12-05T10:38:31.534Z,19.23
2022-12-05T10:41:05.606Z,21.45
2022-12-05T10:43:38.241Z,23.65
2022-12-05T10:46:09.728Z,22.05
2022-12-05T10:48:42.817Z,21.50
2022-12-05T10:51:18.733Z,22.08
2022-12-05T10:53:51.323Z,19.58
2022-12-05T10:56:40.750Z,18.23
2022-12-05T10:59:17.871Z,19.88
2022-12-05T11:01:59.843Z,16.90
2022-12-05T11:04:44.673Z,19.98
2022-12-05T11:07:36.651Z,18.83
2022-12-05T11:10:44.233Z,19.33
2022-12-05T11:13:23.954Z,18.00
2022-12-05T11:15:55.572Z,18.40
2022-12-05T11:18:30.528Z,23.17
2022-12-05T11:21:12.460Z,23.15
2022-12-05T11:23:41.155Z,22.60
2022-12-05T11:26:37.982Z,19.00
2022-12-05T11:29:36.935Z,21.40
2022-12-05T11:32:18.325Z,23.45
2022-12-05T11:35:12.563Z,26.58
2022-12-05T11:38:11.372Z,27.63
2022-12-05T11:41:01.108Z,26.30
2022-12-05T11:44:07.403Z,23.88
2022-12-05T11:46:47.743Z,23.25
2022-12-05T11:49:59.704Z,21.30
2022-12-05T11:52:40.447Z,21.55
2022-12-05T11:55:23.534Z,27.83
2022-12-05T11:58:03.482Z,18.42
2022-12-05T12:00:57.669Z,19.15
2022-12-05T12:04:13.400Z,20.25
2022-12-05T12:06:57.325Z,19.27
2022-12-05T12:09:41.044Z,15.68
2022-12-05T12:12:53.516Z,14.55
2022-12-05T12:15:46.731Z,14.60
2022-12-05T12:18:53.329Z,15.13
2022-12-05T12:21:43.140Z,15.85
2022-12-05T12:24:32.379Z,12.35
2022-12-05T12:27:33.934Z,12.48
2022-12-05T12:30:05.693Z,11.90
2022-12-05T12:33:02.303Z,10.77
2022-12-05T12:36:00.445Z,10.93
2022-12-05T12:39:09.270Z,10.95
2022-12-05T12:42:22.371Z,9.10
2022-12-05T12:45:28.491Z,8.70
2022-12-05T12:48:37.024Z,8.30
2022-12-05T12:51:08.583Z,8.65
2022-12-05T12:56:47.789Z,8.93
2022-12-05T12:59:32.910Z,8.77
2022-12-05T13:02:17.643Z,7.32
2022-12-05T13:05:05.245Z,7.00
2022-12-05T13:07:48.507Z,8.45
2022-12-05T13:10:30.602Z,7.60
2022-12-05T13:13:01.079Z,8.38
2022-12-05T13:15:56.673Z,8.65
2022-12-05T13:18:26.842Z,8.13
2022-12-05T13:21:01.728Z,8.48
2022-12-05T13:23:34.434Z,8.07
2022-12-05T13:26:10.954Z,7.13
2022-12-05T13:28:55.222Z,6.95
2022-12-05T13:31:40.392Z,8.35
2022-12-05T13:34:27.544Z,7.47
2022-12-05T13:37:20.268Z,6.05
2022-12-05T13:40:14.581Z,7.13
2022-12-05T13:42:43.477Z,6.13
2022-12-05T13:45:34.904Z,12.65
2022-12-05T13:48:28.465Z,7.03
2022-12-05T13:51:36.311Z,7.57
2022-12-05T13:54:31.778Z,6.30
2022-12-05T13:57:54.021Z,7.13
2022-12-05T14:00:38.688Z,7.18
2022-12-05T14:03:22.316Z,8.32
2022-12-05T14:05:54.267Z,7.75
2022-12-05T14:08:31.241Z,6.55
2022-12-05T14:10:59.544Z,6.75
2022-12-05T14:13:27.688Z,8.70
2022-12-05T14:16:17.353Z,7.03
2022-12-05T14:19:37.785Z,9.32
2022-12-05T14:22:48.236Z,7.00
2022-12-05T14:25:29.385Z,6.38
2022-12-05T14:28:18.636Z,7.70
2022-12-05T14:31:01.836Z,6.13
2022-12-05T14:33:30.264Z,6.57
2022-12-05T14:36:08.956Z,6.63
2022-12-05T14:38:37.958Z,5.78
2022-12-05T14:41:34.388Z,6.32
2022-12-05T14:44:08.589Z,6.10
2022-12-05T14:46:37.555Z,5.53
2022-12-05T14:49:54.464Z,4.72
2022-12-05T14:52:27.748Z,4.18
2022-12-05T14:55:09.270Z,4.65
2022-12-05T14:57:49.141Z,5.05
2022-12-05T15:00:23.147Z,5.65
2022-12-05T15:02:55.654Z,5.10
2022-12-05T15:05:32.223Z,4.47
2022-12-05T15:08:04.915Z,3.92
2022-12-05T15:10:42.185Z,5.18
2022-12-05T15:13:19.312Z,3.75
2022-12-05T15:16:01.285Z,5.38
2022-12-05T15:21:43.425Z,2.65
2022-12-05T15:24:19.373Z,2.58
2022-12-05T15:26:56.926Z,2.72
2022-12-05T15:29:30.036Z,2.65
2022-12-05T15:32:13.818Z,4.35
2022-12-05T15:35:05.319Z,3.67
2022-12-05T15:37:52.908Z,2.65
2022-12-05T15:40:24.230Z,2.78
2022-12-05T15:42:55.637Z,3.75
2022-12-05T15:47:57.541Z,3.22
2022-12-05T15:50:45.635Z,2.08
2022-12-05T15:53:37.122Z,2.47
2022-12-05T15:56:34.439Z,2.72
2022-12-05T15:59:33.411Z,4.78
2022-12-05T16:02:20.611Z,10.57
2022-12-05T16:04:58.231Z,8.55
2022-12-05T16:07:30.968Z,7.55
2022-12-05T16:10:01.100Z,6.70
2022-12-05T16:12:41.952Z,6.05
2022-12-05T16:15:28.091Z,5.38
2022-12-05T16:18:02.169Z,7.22
2022-12-05T16:20:36.264Z,5.28
2022-12-05T16:23:23.138Z,5.15
2022-12-05T16:25:52.726Z,5.80
2022-12-05T16:28:23.744Z,126.88
2022-12-05T16:31:02.745Z,41.58
2022-12-05T16:33:32.100Z,20.23
2022-12-05T16:36:11.717Z,17.17
2022-12-05T16:39:07.059Z,11.55
2022-12-05T16:41:39.365Z,10.02
2022-12-05T16:44:27.686Z,8.85
2022-12-05T16:46:56.796Z,8.23
2022-12-05T16:49:30.895Z,8.10
2022-12-05T16:52:14.983Z,8.43
2022-12-05T16:54:48.170Z,10.10
2022-12-05T16:57:17.719Z,9.00
2022-12-05T16:59:49.646Z,8.82
2022-12-05T17:02:20.682Z,9.75
2022-12-05T17:04:48.899Z,12.18
2022-12-05T17:07:16.780Z,11.27
2022-12-05T17:09:44.979Z,14.20
2022-12-05T17:12:24.010Z,13.65
2022-12-05T17:14:52.144Z,10.98
2022-12-05T17:17:21.248Z,11.95
2022-12-05T17:19:49.488Z,12.48
2022-12-05T17:22:17.940Z,10.73
2022-12-05T17:24:47.541Z,10.13
2022-12-05T17:27:17.745Z,10.35
2022-12-05T17:29:46.423Z,8.25
2022-12-05T17:32:15.508Z,10.65
2022-12-05T17:34:43.508Z,9.05
2022-12-05T17:37:11.573Z,6.97
2022-12-05T17:39:39.603Z,6.85
2022-12-05T17:42:08.503Z,7.75
2022-12-05T17:44:36.961Z,6.82
2022-12-05T17:47:08.150Z,5.28
2022-12-05T17:49:36.515Z,5.15
2022-12-05T17:52:21.375Z,6.28
2022-12-05T17:54:50.856Z,6.07
2022-12-05T17:57:18.925Z,4.45
2022-12-05T17:59:48.318Z,5.13
2022-12-05T18:02:20.247Z,5.53
2022-12-05T18:04:49.662Z,4.63
2022-12-05T18:07:17.902Z,4.68
2022-12-05T18:09:45.879Z,5.70
2022-12-05T18:12:14.654Z,6.93
2022-12-05T18:14:43.311Z,7.72
2022-12-05T18:17:11.304Z,7.35
2022-12-05T18:19:39.675Z,7.00
2022-12-05T18:22:07.959Z,12.20
2022-12-05T18:24:36.598Z,12.55
2022-12-05T18:27:05.147Z,12.18
2022-12-05T18:29:34.008Z,16.40
2022-12-05T18:32:02.784Z,17.15
2022-12-05T18:34:31.048Z,17.27
2022-12-05T18:36:59.828Z,14.50
2022-12-05T18:39:28.935Z,12.98
2022-12-05T18:41:57.715Z,11.80
2022-12-05T18:44:26.752Z,10.07
2022-12-05T18:46:55.091Z,8.85
2022-12-05T18:49:23.328Z,9.43
2022-12-05T18:51:52.657Z,8.88
2022-12-05T18:54:21.004Z,9.68
2022-12-05T18:56:51.465Z,11.93
2022-12-05T18:59:23.245Z,9.02
2022-12-05T19:01:52.690Z,7.85
2022-12-05T19:04:22.748Z,8.00
2022-12-05T19:07:02.365Z,10.10
2022-12-05T19:09:32.604Z,9.52
2022-12-05T19:12:02.030Z,14.18
2022-12-05T19:14:33.675Z,12.38
2022-12-05T19:17:04.203Z,12.52
2022-12-05T19:19:33.503Z,12.95
2022-12-05T19:22:02.638Z,13.55
2022-12-05T19:24:31.352Z,12.77
2022-12-05T19:26:59.850Z,13.63
2022-12-05T19:29:29.264Z,12.27
2022-12-05T19:31:57.963Z,12.38
2022-12-05T19:34:28.364Z,11.98
2022-12-05T19:36:57.516Z,11.73
2022-12-05T19:39:27.457Z,10.80
2022-12-05T19:42:00.584Z,11.45
2022-12-05T19:44:29.333Z,10.70
2022-12-05T19:46:58.363Z,11.05
2022-12-05T19:49:28.648Z,10.90
2022-12-05T19:51:57.428Z,9.55
2022-12-05T19:54:26.886Z,10.57
2022-12-05T19:56:58.592Z,9.63
2022-12-05T19:59:32.777Z,9.25
2022-12-05T20:02:03.217Z,9.27
2022-12-05T20:04:34.479Z,8.90
2022-12-05T20:07:03.775Z,8.65
2022-12-05T20:09:35.052Z,8.10
2022-12-05T20:12:04.602Z,8.63
2022-12-05T20:14:34.872Z,6.97
2022-12-05T20:17:05.554Z,8.15
2022-12-05T20:19:34.892Z,9.00
2022-12-05T20:22:06.264Z,7.55
2022-12-05T20:24:44.240Z,7.78
2022-12-05T20:27:14.571Z,9.57
2022-12-05T20:29:46.043Z,9.80
2022-12-05T20:32:15.620Z,9.55
2022-12-05T20:34:46.763Z,9.68
2022-12-05T20:37:18.004Z,12.93
2022-12-05T20:39:47.604Z,9.90
2022-12-05T20:42:18.537Z,12.95
2022-12-05T20:44:49.418Z,17.40
2022-12-05T20:47:18.863Z,12.95
2022-12-05T20:49:50.119Z,11.40
2022-12-05T20:52:19.414Z,12.10
2022-12-05T20:54:47.953Z,16.45
2022-12-05T20:57:17.240Z,14.60
2022-12-05T20:59:46.444Z,11.30
2022-12-05T21:02:14.982Z,9.93
2022-12-05T21:04:43.673Z,9.98
2022-12-05T21:07:13.532Z,11.68
2022-12-05T21:09:42.311Z,11.13
2022-12-05T21:12:10.734Z,8.73
2022-12-05T21:14:40.024Z,11.63
2022-12-05T21:17:10.277Z,9.83
2022-12-05T21:19:39.729Z,10.88
2022-12-05T21:22:08.265Z,10.73
2022-12-05T21:24:40.212Z,9.55
2022-12-05T21:27:09.042Z,11.23
2022-12-05T21:29:37.232Z,11.75
2022-12-05T21:32:06.359Z,11.32
2022-12-05T21:34:34.605Z,9.23
2022-12-05T21:37:03.353Z,8.68
2022-12-05T21:39:32.423Z,9.65
2022-12-05T21:42:05.644Z,9.73
2022-12-05T21:44:33.948Z,8.68
2022-12-05T21:47:02.364Z,7.80
2022-12-05T21:49:30.892Z,7.70
2022-12-05T21:51:59.159Z,7.50
2022-12-05T21:54:27.320Z,8.68
2022-12-05T21:56:55.386Z,7.40
2022-12-05T21:59:23.792Z,6.85
2022-12-05T22:01:52.788Z,7.43
2022-12-05T22:04:21.031Z,8.65
2022-12-05T22:06:49.524Z,7.32
2022-12-05T22:09:19.179Z,7.88
2022-12-05T22:11:47.811Z,6.13
2022-12-05T22:14:15.971Z,6.70
2022-12-05T22:16:44.249Z,6.32
2022-12-05T22:19:12.575Z,6.90
2022-12-05T22:21:40.718Z,7.15
2022-12-05T22:24:11.228Z,5.40
2022-12-05T22:26:41.526Z,5.70
2022-12-05T22:29:09.970Z,7.00
2022-12-05T22:31:40.576Z,6.93
2022-12-05T22:34:09.266Z,6.15
2022-12-05T22:36:37.305Z,8.43
2022-12-05T22:39:05.342Z,10.15
2022-12-05T22:41:33.894Z,7.90
2022-12-05T22:44:01.771Z,7.82
2022-12-05T22:46:29.683Z,6.43
2022-12-05T22:48:58.681Z,8.07
2022-12-05T22:51:27.618Z,6.28
2022-12-05T22:53:56.755Z,5.97
2022-12-05T22:56:28.819Z,5.05
2022-12-05T22:59:00.251Z,4.10
2022-12-05T23:01:34.484Z,5.72
2022-12-05T23:04:11.511Z,5.43
2022-12-05T23:06:40.199Z,6.60
2022-12-05T23:09:10.941Z,5.78
2022-12-05T23:11:40.265Z,5.68
2022-12-05T23:14:09.572Z,5.18
2022-12-05T23:16:37.597Z,5.18
2022-12-05T23:19:06.038Z,6.10
2022-12-05T23:21:39.024Z,5.75
2022-12-05T23:24:12.860Z,5.35
2022-12-05T23:26:46.043Z,6.72
2022-12-05T23:29:15.044Z,7.72
2022-12-05T23:31:43.435Z,5.63
2022-12-05T23:34:12.443Z,5.85
2022-12-05T23:36:40.658Z,7.38
2022-12-05T23:39:10.531Z,5.80
2022-12-05T23:41:38.858Z,6.63
2022-12-05T23:44:07.127Z,6.63
2022-12-05T23:46:35.091Z,6.55
2022-12-05T23:49:04.160Z,5.85
2022-12-05T23:51:32.435Z,5.57
2022-12-05T23:54:04.297Z,6.07
2022-12-05T23:56:34.783Z,6.43
2022-12-05T23:59:06.564Z,6.07
